Time;durP1;ratioP1;P1;durP2;ratioP2;P2;SDS_P1;SDS_P2;PMS_P1;PMS_P2;Temp;Humidity;BMP_temperature;BMP_pressure;BME280_temperature;BME280_humidity;BME280_pressure;Samples;Min_cycle;Max_cycle;Signal;HPM_P1;HPM_P2
2021/12/04 00:01:50;;;;;;;10.43;7.43;;;2.80;99.90;;;;;;12500965;28;20048;-38
2021/12/04 00:07:52;;;;;;;10.65;7.50;;;2.80;99.90;;;;;;12500115;28;20456;-38
2021/12/04 00:13:54;;;;;;;11.45;7.50;;;2.80;99.90;;;;;;12493259;28;20087;-38
2021/12/04 00:19:57;;;;;;;11.00;7.00;;;2.80;99.90;;;;;;12495932;28;20053;-37
2021/12/04 00:25:59;;;;;;;10.35;7.03;;;2.80;99.90;;;;;;12495989;28;20052;-38
2021/12/04 00:32:28;;;;;;;10.07;7.50;;;2.80;99.90;;;;;;12495556;28;20044;-38
2021/12/04 00:50:51;;;;;;;12.13;8.13;;;2.90;99.90;;;;;;12494365;28;20057;-39
2021/12/04 00:56:54;;;;;;;12.68;8.68;;;2.80;99.90;;;;;;12494753;28;20449;-38
2021/12/04 01:02:56;;;;;;;13.05;8.68;;;2.80;99.90;;;;;;12499049;28;20072;-39
2021/12/04 01:08:59;;;;;;;11.00;8.02;;;2.80;99.90;;;;;;12504276;28;20049;-38
2021/12/04 01:15:06;;;;;;;12.25;8.88;;;2.80;99.90;;;;;;12505191;28;20072;-39
2021/12/04 01:21:08;;;;;;;12.83;9.10;;;2.80;99.90;;;;;;12511971;28;20053;-38
2021/12/04 01:27:10;;;;;;;12.13;9.02;;;2.80;99.90;;;;;;12502728;28;20046;-39
2021/12/04 01:33:12;;;;;;;14.88;9.05;;;2.80;99.90;;;;;;12501399;28;20085;-38
2021/12/04 01:39:14;;;;;;;14.73;9.18;;;2.80;99.90;;;;;;12502738;28;20037;-38
2021/12/04 01:45:17;;;;;;;11.50;8.65;;;2.80;99.90;;;;;;12507608;28;20090;-40
2021/12/04 01:51:19;;;;;;;13.75;8.98;;;2.80;99.90;;;;;;12486472;28;20533;-39
2021/12/04 01:57:22;;;;;;;13.65;9.57;;;2.80;99.90;;;;;;12500745;28;20048;-38
2021/12/04 02:03:25;;;;;;;16.35;9.60;;;2.80;99.90;;;;;;12503740;28;20037;-38
2021/12/04 02:09:27;;;;;;;16.75;9.90;;;2.80;99.90;;;;;;12505909;28;20053;-38
2021/12/04 02:15:29;;;;;;;16.55;9.65;;;2.80;99.90;;;;;;12501491;28;20068;-39
2021/12/04 02:21:32;;;;;;;13.80;9.25;;;2.80;99.90;;;;;;12500104;28;20106;-39
2021/12/04 02:27:34;;;;;;;14.57;9.75;;;2.80;99.90;;;;;;12501487;28;20049;-38
2021/12/04 02:33:36;;;;;;;16.80;9.45;;;2.80;99.90;;;;;;12499307;28;20045;-38
2021/12/04 02:39:43;;;;;;;11.27;8.75;;;2.90;99.90;;;;;;12503536;28;20160;-39
2021/12/04 02:45:45;;;;;;;13.00;9.48;;;2.90;99.90;;;;;;12505137;28;20049;-39
2021/12/04 02:51:47;;;;;;;13.50;9.38;;;2.90;99.90;;;;;;12503953;28;20052;-39
2021/12/04 02:57:53;;;;;;;12.18;9.13;;;2.90;99.90;;;;;;12502889;28;20060;-38
2021/12/04 03:04:16;;;;;;;14.77;9.40;;;2.90;99.90;;;;;;12504674;28;20165;-38
2021/12/04 03:10:19;;;;;;;17.63;10.07;;;2.90;99.90;;;;;;12499525;28;20049;-38
2021/12/04 03:16:21;;;;;;;13.68;9.48;;;2.90;99.90;;;;;;12502999;28;20049;-38
2021/12/04 03:22:23;;;;;;;13.52;9.50;;;2.90;99.90;;;;;;12500355;28;20106;-39
2021/12/04 03:28:27;;;;;;;16.67;10.45;;;2.90;99.90;;;;;;12500940;28;20052;-38
2021/12/04 03:40:57;;;;;;;15.75;10.57;;;2.90;99.90;;;;;;12477816;28;20071;-39
2021/12/04 03:47:00;;;;;;;16.40;11.80;;;2.90;99.90;;;;;;12498647;28;20045;-39
2021/12/04 03:53:03;;;;;;;17.20;12.05;;;2.80;99.90;;;;;;12502707;28;20069;-38
2021/12/04 03:59:05;;;;;;;17.95;11.90;;;2.80;99.90;;;;;;12498839;28;20092;-39
2021/12/04 04:05:08;;;;;;;18.98;12.98;;;2.80;99.90;;;;;;12496463;28;20045;-38
2021/12/04 04:11:10;;;;;;;18.20;11.77;;;2.80;99.90;;;;;;12496177;28;20513;-39
2021/12/04 04:17:12;;;;;;;17.88;12.82;;;2.80;99.90;;;;;;12497466;28;20045;-38
2021/12/04 04:23:14;;;;;;;20.90;14.15;;;2.80;99.90;;;;;;12494793;28;20148;-39
2021/12/04 04:29:16;;;;;;;20.80;14.38;;;2.70;99.90;;;;;;12497695;28;20053;-38
2021/12/04 04:35:26;;;;;;;19.85;14.07;;;2.60;99.90;;;;;;12494224;28;20060;-39
2021/12/04 05:12:57;;;;;;;21.83;14.20;;;2.60;99.90;;;;;;12497211;28;20061;-38
2021/12/04 05:19:11;;;;;;;23.60;14.95;;;2.60;99.90;;;;;;12495058;28;20053;-38
2021/12/04 05:25:13;;;;;;;23.27;15.10;;;2.60;99.90;;;;;;12492003;28;20465;-41
2021/12/04 05:31:16;;;;;;;22.20;14.38;;;2.60;99.90;;;;;;12495356;28;20041;-39
2021/12/04 05:37:18;;;;;;;23.17;14.70;;;2.60;99.90;;;;;;12485964;28;20046;-39
2021/12/04 05:43:22;;;;;;;21.10;13.77;;;2.60;99.90;;;;;;12487952;28;20071;-39
2021/12/04 05:49:34;;;;;;;20.48;14.18;;;2.60;99.90;;;;;;12497099;28;20496;-39
2021/12/04 05:55:51;;;;;;;24.15;14.05;;;2.60;99.90;;;;;;12498436;28;20061;-39
2021/12/04 06:01:53;;;;;;;24.63;14.70;;;2.60;99.90;;;;;;12501097;28;20064;-39
2021/12/04 06:07:55;;;;;;;24.55;16.27;;;2.60;99.90;;;;;;12500906;28;20455;-39
2021/12/04 06:13:57;;;;;;;21.70;14.20;;;2.70;99.90;;;;;;12503541;28;20594;-39
2021/12/04 06:26:19;;;;;;;27.10;15.32;;;2.60;99.90;;;;;;12502274;28;20077;-39
2021/12/04 06:32:21;;;;;;;26.90;15.60;;;2.60;99.90;;;;;;12499403;28;20699;-39
2021/12/04 06:38:24;;;;;;;24.98;15.75;;;2.60;99.90;;;;;;12499201;28;20139;-37
2021/12/04 06:44:27;;;;;;;24.63;16.55;;;2.50;99.90;;;;;;12497027;28;20052;-37
2021/12/04 06:50:49;;;;;;;23.52;14.90;;;2.50;99.90;;;;;;12497809;28;20057;-38
2021/12/04 06:56:51;;;;;;;28.02;16.02;;;2.50;99.90;;;;;;12502436;28;20084;-39
2021/12/04 07:02:53;;;;;;;24.10;15.88;;;2.50;99.90;;;;;;12497528;28;20539;-38
2021/12/04 07:08:57;;;;;;;29.52;16.23;;;2.50;99.90;;;;;;12503486;28;20080;-39
2021/12/04 07:15:00;;;;;;;25.45;16.17;;;2.60;99.90;;;;;;12506822;28;20782;-38
2021/12/04 07:21:06;;;;;;;27.05;16.30;;;2.60;99.90;;;;;;12502855;28;20072;-38
2021/12/04 07:27:08;;;;;;;26.20;16.48;;;2.60;99.90;;;;;;12502730;28;20098;-39
2021/12/04 07:33:10;;;;;;;25.90;16.30;;;2.60;99.90;;;;;;12496693;28;20077;-38
2021/12/04 07:39:12;;;;;;;31.92;17.25;;;2.60;99.90;;;;;;12502014;28;20084;-39
2021/12/04 07:45:14;;;;;;;27.27;16.10;;;2.60;99.90;;;;;;12504266;28;20134;-39
2021/12/04 07:51:20;;;;;;;27.67;16.50;;;2.70;99.90;;;;;;12501944;28;20052;-37
2021/12/04 07:57:22;;;;;;;23.90;16.38;;;2.80;99.90;;;;;;12499048;28;20378;-37
2021/12/04 08:03:25;;;;;;;31.52;16.85;;;2.80;99.90;;;;;;12502987;28;20155;-39
2021/12/04 08:09:27;;;;;;;28.73;17.77;;;2.80;99.90;;;;;;12496391;28;20490;-39
2021/12/04 08:15:31;;;;;;;32.28;18.73;;;2.90;99.90;;;;;;12497403;28;20056;-39
2021/12/04 08:21:35;;;;;;;30.92;18.15;;;2.90;99.90;;;;;;12496633;28;20098;-37
2021/12/04 08:27:37;;;;;;;28.27;17.83;;;3.00;99.90;;;;;;12494990;28;20465;-38
2021/12/04 08:33:40;;;;;;;26.65;17.73;;;3.00;99.90;;;;;;12496528;28;20114;-39
2021/12/04 08:39:44;;;;;;;27.58;18.08;;;3.00;99.90;;;;;;12495193;28;20053;-39
2021/12/04 08:45:47;;;;;;;27.70;17.90;;;3.10;99.90;;;;;;12499487;28;20042;-38
2021/12/04 08:51:54;;;;;;;25.35;16.52;;;3.10;99.90;;;;;;12499925;28;20103;-38
2021/12/04 08:57:58;;;;;;;25.55;15.85;;;3.20;99.90;;;;;;12506181;28;20056;-38
2021/12/04 09:04:17;;;;;;;23.88;14.90;;;3.30;99.90;;;;;;12503448;28;20042;-38
2021/12/04 09:10:28;;;;;;;20.80;14.07;;;3.30;99.90;;;;;;12513570;28;20056;-39
2021/12/04 09:16:36;;;;;;;20.95;13.52;;;3.40;99.90;;;;;;12509578;28;20118;-38
2021/12/04 09:22:48;;;;;;;18.10;12.63;;;3.50;99.90;;;;;;12503627;28;20127;-38
2021/12/04 09:29:05;;;;;;;18.80;12.33;;;3.50;99.90;;;;;;12531935;28;20128;-38
2021/12/04 09:35:37;;;;;;;16.63;11.85;;;3.60;99.90;;;;;;12509902;28;20120;-39
2021/12/04 10:01:04;;;;;;;14.23;10.55;;;3.80;99.90;;;;;;12505609;28;20592;-39
2021/12/04 10:20:08;;;;;;;15.98;10.85;;;3.80;99.90;;;;;;12504793;28;20049;-39
2021/12/04 10:38:45;;;;;;;14.85;10.48;;;3.90;99.90;;;;;;12515163;28;20471;-39
2021/12/04 10:44:58;;;;;;;13.23;8.57;;;3.90;99.90;;;;;;12504676;28;20527;-38
2021/12/04 10:51:34;;;;;;;15.48;8.88;;;3.80;99.90;;;;;;12514444;28;20733;-38
2021/12/04 11:23:38;;;;;;;12.60;8.60;;;3.70;99.90;;;;;;12506658;28;20065;-39
2021/12/04 11:48:34;;;;;;;10.18;7.10;;;3.90;99.90;;;;;;12503540;28;20052;-39
2021/12/04 11:55:08;;;;;;;9.25;6.80;;;3.90;99.90;;;;;;12499559;28;20102;-38
2021/12/04 12:01:21;;;;;;;7.47;5.82;;;4.00;99.90;;;;;;12502871;28;20048;-38
2021/12/04 12:07:27;;;;;;;7.30;5.40;;;3.90;99.90;;;;;;12501049;28;20125;-38
2021/12/04 12:13:46;;;;;;;7.60;5.28;;;3.90;99.90;;;;;;12496361;28;20822;-39
2021/12/04 12:19:51;;;;;;;6.68;5.10;;;3.80;99.90;;;;;;12495407;28;20128;-38
2021/12/04 12:32:22;;;;;;;6.15;4.70;;;3.70;99.90;;;;;;12497503;28;20046;-39
2021/12/04 12:38:45;;;;;;;5.97;4.43;;;3.80;99.90;;;;;;12497222;28;20045;-39
2021/12/04 12:44:47;;;;;;;6.15;3.97;;;4.00;99.90;;;;;;12498155;28;20056;-38
2021/12/04 12:50:50;;;;;;;7.70;4.07;;;4.20;99.90;;;;;;12498570;28;20060;-40
2021/12/04 12:57:03;;;;;;;5.20;3.75;;;4.20;99.90;;;;;;12491776;28;20466;-39
2021/12/04 13:15:50;;;;;;;4.65;3.42;;;4.20;99.90;;;;;;12489932;28;20057;-38
2021/12/04 13:21:55;;;;;;;4.03;2.78;;;4.20;99.90;;;;;;12495871;28;20314;-39
2021/12/04 13:33:59;;;;;;;4.50;3.03;;;4.30;99.90;;;;;;12495858;28;20080;-39
2021/12/04 13:40:05;;;;;;;4.47;2.85;;;4.20;99.90;;;;;;12493274;28;20049;-39
2021/12/04 13:46:08;;;;;;;4.53;2.85;;;4.20;99.90;;;;;;12495420;28;20061;-38
2021/12/04 13:52:12;;;;;;;4.47;2.78;;;4.10;99.90;;;;;;12494035;28;20042;-38
2021/12/04 13:58:14;;;;;;;4.03;2.90;;;4.10;99.90;;;;;;12495204;28;20049;-38
2021/12/04 14:04:21;;;;;;;3.90;2.75;;;4.10;99.90;;;;;;12495476;28;20182;-39
2021/12/04 14:10:26;;;;;;;3.67;2.67;;;4.10;99.90;;;;;;12502341;28;20152;-39
2021/12/04 14:16:29;;;;;;;3.90;2.80;;;4.10;99.90;;;;;;12506906;28;20087;-38
2021/12/04 14:22:32;;;;;;;5.25;3.20;;;4.10;99.90;;;;;;12502050;28;20045;-39
2021/12/04 14:28:38;;;;;;;4.60;3.10;;;4.00;99.90;;;;;;12501535;28;20483;-39
2021/12/04 14:34:40;;;;;;;4.13;3.10;;;3.90;99.90;;;;;;12502803;28;20049;-39
2021/12/04 14:40:45;;;;;;;5.40;3.42;;;3.90;99.90;;;;;;12499301;28;20104;-38
2021/12/04 14:46:48;;;;;;;4.80;3.47;;;3.90;99.90;;;;;;12499641;28;20107;-39
2021/12/04 14:52:55;;;;;;;5.47;3.57;;;3.90;99.90;;;;;;12504331;28;20057;-38
2021/12/04 14:58:59;;;;;;;5.50;3.83;;;3.90;99.90;;;;;;12503817;28;20042;-39
2021/12/04 15:05:02;;;;;;;9.52;3.65;;;3.90;99.90;;;;;;12500409;28;20049;-39
2021/12/04 15:11:10;;;;;;;5.50;3.70;;;3.90;99.90;;;;;;12501511;28;20490;-38
2021/12/04 15:17:15;;;;;;;5.50;3.92;;;3.80;99.90;;;;;;12506164;28;20049;-38
2021/12/04 15:23:20;;;;;;;6.28;3.72;;;3.80;99.90;;;;;;12502945;28;20140;-37
2021/12/04 15:29:27;;;;;;;6.10;3.67;;;3.80;99.90;;;;;;12505239;28;20053;-38
2021/12/04 15:35:40;;;;;;;7.82;4.63;;;3.80;99.90;;;;;;12499608;28;20090;-39
2021/12/04 15:42:01;;;;;;;6.50;4.70;;;3.70;99.90;;;;;;12495950;28;20575;-40
2021/12/04 15:54:36;;;;;;;7.03;5.20;;;3.60;99.90;;;;;;12481769;28;20512;-38
2021/12/04 16:01:08;;;;;;;7.25;5.32;;;3.50;99.90;;;;;;12499480;28;20084;-38
2021/12/04 16:07:22;;;;;;;9.73;5.85;;;3.50;99.90;;;;;;12494638;28;20049;-39
2021/12/04 16:13:34;;;;;;;8.13;6.40;;;3.50;99.90;;;;;;12500256;28;20045;-38
2021/12/04 16:19:39;;;;;;;11.73;7.05;;;3.50;99.90;;;;;;12501189;28;20053;-38
2021/12/04 16:25:42;;;;;;;10.13;6.82;;;3.50;99.90;;;;;;12494808;28;20139;-38
2021/12/04 16:38:15;;;;;;;11.50;7.07;;;3.30;99.90;;;;;;12496054;28;20340;-38
2021/12/04 16:44:17;;;;;;;10.52;6.95;;;3.20;99.90;;;;;;12501417;28;20389;-38
2021/12/04 16:50:25;;;;;;;11.35;6.97;;;3.10;99.90;;;;;;12495551;28;20081;-39
2021/12/04 16:57:09;;;;;;;10.30;6.97;;;3.00;99.90;;;;;;12502011;28;20494;-38
2021/12/04 17:03:11;;;;;;;10.80;6.85;;;2.90;99.90;;;;;;12500410;28;20053;-39
2021/12/04 17:09:15;;;;;;;10.68;7.43;;;2.70;99.90;;;;;;12503607;28;20087;-39
2021/12/04 17:15:22;;;;;;;9.93;6.78;;;2.60;99.90;;;;;;12500477;28;20046;-39
2021/12/04 17:21:32;;;;;;;8.98;6.13;;;2.60;99.90;;;;;;12497427;28;20690;-37
2021/12/04 17:27:34;;;;;;;11.35;6.82;;;2.60;99.90;;;;;;12495314;28;20057;-39
2021/12/04 17:33:36;;;;;;;9.93;6.53;;;2.60;99.90;;;;;;12496471;28;20624;-38
2021/12/04 17:39:38;;;;;;;10.45;7.18;;;2.50;99.90;;;;;;12490164;28;20842;-38
2021/12/04 17:45:41;;;;;;;8.80;6.43;;;2.50;99.90;;;;;;12501493;28;20559;-39
2021/12/04 17:51:45;;;;;;;9.88;7.32;;;2.40;99.90;;;;;;12500100;28;20409;-39
2021/12/04 17:57:48;;;;;;;9.52;6.40;;;2.50;99.90;;;;;;12500645;28;20057;-38
2021/12/04 18:03:53;;;;;;;9.32;6.30;;;2.50;99.90;;;;;;12500559;28;20059;-38
2021/12/04 18:10:05;;;;;;;9.23;6.13;;;2.40;99.90;;;;;;12501561;28;20052;-38
2021/12/04 18:16:13;;;;;;;10.52;6.97;;;2.30;99.90;;;;;;12499871;28;20053;-38
2021/12/04 18:22:15;;;;;;;12.23;7.10;;;2.50;99.90;;;;;;12504598;28;21310;-37
2021/12/04 18:28:19;;;;;;;12.70;7.30;;;2.50;99.90;;;;;;12497684;28;20140;-39
2021/12/04 18:34:22;;;;;;;8.27;5.78;;;2.30;99.90;;;;;;12493278;28;20052;-39
2021/12/04 18:40:25;;;;;;;10.98;5.90;;;2.00;99.90;;;;;;12499084;28;20053;-38
2021/12/04 18:46:31;;;;;;;8.48;5.78;;;1.80;99.90;;;;;;12497309;28;20123;-38
2021/12/04 18:52:33;;;;;;;10.55;6.15;;;1.80;99.90;;;;;;12493394;28;20045;-39
2021/12/04 18:58:37;;;;;;;9.23;6.13;;;1.70;99.90;;;;;;12496582;28;20053;-38
2021/12/04 19:04:39;;;;;;;8.50;5.95;;;1.70;99.90;;;;;;12497076;28;20550;-39
2021/12/04 19:10:42;;;;;;;8.70;6.03;;;1.90;99.90;;;;;;12493989;28;20482;-39
2021/12/04 19:16:47;;;;;;;11.88;7.88;;;2.00;99.90;;;;;;12495927;28;20069;-39
2021/12/04 19:22:51;;;;;;;9.75;6.78;;;2.00;99.90;;;;;;12493833;28;20452;-38
2021/12/04 19:28:56;;;;;;;11.55;6.32;;;1.90;99.90;;;;;;12502593;28;20045;-39
2021/12/04 20:00:07;;;;;;;9.50;7.22;;;1.40;99.90;;;;;;12493018;28;20052;-39
2021/12/04 20:06:18;;;;;;;12.02;7.50;;;1.40;99.90;;;;;;12491924;28;20128;-39
2021/12/04 20:18:43;;;;;;;9.43;6.80;;;1.40;99.90;;;;;;12491521;28;20041;-39
2021/12/04 20:24:49;;;;;;;10.68;7.47;;;1.40;99.90;;;;;;12442939;28;20149;-38
2021/12/04 20:31:05;;;;;;;12.25;8.88;;;1.40;99.90;;;;;;12436985;28;20060;-39
2021/12/04 21:52:07;;;;;;;25.42;15.93;;;2.50;99.90;;;;;;12448345;28;20057;-38
2021/12/04 21:58:41;;;;;;;22.35;14.30;;;2.60;99.90;;;;;;12453637;28;20078;-39
2021/12/04 22:10:59;;;;;;;27.00;16.38;;;2.80;99.90;;;;;;12448154;28;20076;-39
2021/12/04 23:01:30;;;;;;;25.25;15.10;;;3.40;99.90;;;;;;12481065;28;20144;-38
2021/12/04 23:14:19;;;;;;;31.27;17.30;;;3.40;99.90;;;;;;12429138;28;21005;-39
2021/12/04 23:33:40;;;;;;;38.53;19.02;;;3.70;99.90;;;;;;12498916;28;20052;-38
